sensor_id;sensor_type;location;lat;lon;timestamp;pressure;altitude;pressure_sealevel;temperature;humidity
35577;BME280;21680;52.400;16.920;2023-02-26T00:01:26;99915.44;;;-0.89;90.11
35577;BME280;21680;52.400;16.920;2023-02-26T00:03:55;99916.34;;;-0.90;89.98
35577;BME280;21680;52.400;16.920;2023-02-26T00:06:22;99920.56;;;-0.92;90.04
35577;BME280;21680;52.400;16.920;2023-02-26T00:08:48;99926.36;;;-0.94;90.02
35577;BME280;21680;52.400;16.920;2023-02-26T00:11:13;99929.52;;;-0.95;89.91
35577;BME280;21680;52.400;16.920;2023-02-26T00:13:40;99928.85;;;-0.97;90.06
35577;BME280;21680;52.400;16.920;2023-02-26T00:16:29;99936.05;;;-1.01;90.11
35577;BME280;21680;52.400;16.920;2023-02-26T00:18:57;99942.03;;;-1.03;90.08
35577;BME280;21680;52.400;16.920;2023-02-26T00:21:24;99941.88;;;-1.04;90.11
35577;BME280;21680;52.400;16.920;2023-02-26T00:23:50;99951.72;;;-1.07;90.05
35577;BME280;21680;52.400;16.920;2023-02-26T00:26:16;99955.23;;;-1.09;89.80
35577;BME280;21680;52.400;16.920;2023-02-26T00:28:41;99962.78;;;-1.10;90.07
35577;BME280;21680;52.400;16.920;2023-02-26T00:31:08;99954.90;;;-1.11;89.95
35577;BME280;21680;52.400;16.920;2023-02-26T00:33:34;99967.19;;;-1.14;89.99
35577;BME280;21680;52.400;16.920;2023-02-26T00:38:42;99969.65;;;-1.15;90.20
35577;BME280;21680;52.400;16.920;2023-02-26T00:41:10;99967.20;;;-1.15;89.99
35577;BME280;21680;52.400;16.920;2023-02-26T00:43:36;99971.06;;;-1.17;89.97
35577;BME280;21680;52.400;16.920;2023-02-26T00:54:08;99984.52;;;-1.09;90.33
35577;BME280;21680;52.400;16.920;2023-02-26T00:56:36;99979.94;;;-1.07;90.21
35577;BME280;21680;52.400;16.920;2023-02-26T00:59:01;99983.77;;;-1.04;90.29
35577;BME280;21680;52.400;16.920;2023-02-26T01:01:27;99983.94;;;-1.03;90.30
35577;BME280;21680;52.400;16.920;2023-02-26T01:03:53;99983.58;;;-1.01;90.11
35577;BME280;21680;52.400;16.920;2023-02-26T01:06:20;99985.14;;;-0.99;90.23
35577;BME280;21680;52.400;16.920;2023-02-26T01:08:52;99987.23;;;-0.96;90.19
35577;BME280;21680;52.400;16.920;2023-02-26T01:11:19;99987.40;;;-0.96;90.22
35577;BME280;21680;52.400;16.920;2023-02-26T01:13:44;99987.42;;;-0.99;90.23
35577;BME280;21680;52.400;16.920;2023-02-26T01:16:16;99984.11;;;-1.02;90.11
35577;BME280;21680;52.400;16.920;2023-02-26T01:18:53;99993.61;;;-1.06;90.09
35577;BME280;21680;52.400;16.920;2023-02-26T01:21:36;99995.73;;;-1.08;90.06
35577;BME280;21680;52.400;16.920;2023-02-26T01:24:05;100001.35;;;-1.11;89.97
35577;BME280;21680;52.400;16.920;2023-02-26T01:26:33;99996.63;;;-1.12;90.01
35577;BME280;21680;52.400;16.920;2023-02-26T01:29:12;99995.77;;;-1.14;90.27
35577;BME280;21680;52.400;16.920;2023-02-26T01:32:15;99999.30;;;-1.17;90.05
35577;BME280;21680;52.400;16.920;2023-02-26T01:34:57;100002.98;;;-1.19;89.90
35577;BME280;21680;52.400;16.920;2023-02-26T01:42:42;100018.09;;;-1.25;89.87
35577;BME280;21680;52.400;16.920;2023-02-26T01:45:54;100025.80;;;-1.26;89.95
35577;BME280;21680;52.400;16.920;2023-02-26T01:48:11;100023.02;;;-1.27;90.07
35577;BME280;21680;52.400;16.920;2023-02-26T01:50:43;100028.28;;;-1.29;90.17
35577;BME280;21680;52.400;16.920;2023-02-26T01:53:25;100036.88;;;-1.31;89.94
35577;BME280;21680;52.400;16.920;2023-02-26T01:56:03;100044.77;;;-1.30;89.96
35577;BME280;21680;52.400;16.920;2023-02-26T01:58:33;100046.52;;;-1.30;90.08
35577;BME280;21680;52.400;16.920;2023-02-26T02:01:00;100040.03;;;-1.30;90.02
35577;BME280;21680;52.400;16.920;2023-02-26T02:03:27;100048.09;;;-1.31;89.74
35577;BME280;21680;52.400;16.920;2023-02-26T02:06:07;100049.86;;;-1.32;89.80
35577;BME280;21680;52.400;16.920;2023-02-26T02:08:34;100050.91;;;-1.34;89.96
35577;BME280;21680;52.400;16.920;2023-02-26T02:11:02;100060.91;;;-1.36;89.78
35577;BME280;21680;52.400;16.920;2023-02-26T02:13:47;100062.33;;;-1.39;90.12
35577;BME280;21680;52.400;16.920;2023-02-26T02:19:18;100069.18;;;-1.44;89.89
35577;BME280;21680;52.400;16.920;2023-02-26T02:24:49;100073.23;;;-1.48;89.76
35577;BME280;21680;52.400;16.920;2023-02-26T02:27:22;100077.09;;;-1.51;89.80
35577;BME280;21680;52.400;16.920;2023-02-26T02:30:08;100076.58;;;-1.54;89.69
35577;BME280;21680;52.400;16.920;2023-02-26T02:32:44;100087.98;;;-1.57;89.82
35577;BME280;21680;52.400;16.920;2023-02-26T02:35:21;100086.23;;;-1.58;90.07
35577;BME280;21680;52.400;16.920;2023-02-26T02:38:04;100089.91;;;-1.58;89.75
35577;BME280;21680;52.400;16.920;2023-02-26T02:40:34;100092.01;;;-1.57;89.90
35577;BME280;21680;52.400;16.920;2023-02-26T02:43:06;100093.06;;;-1.57;89.99
35577;BME280;21680;52.400;16.920;2023-02-26T02:45:44;100096.39;;;-1.57;89.96
35577;BME280;21680;52.400;16.920;2023-02-26T02:48:25;100100.08;;;-1.59;89.79
35577;BME280;21680;52.400;16.920;2023-02-26T02:51:27;100108.31;;;-1.61;89.98
35577;BME280;21680;52.400;16.920;2023-02-26T02:54:01;100116.02;;;-1.61;89.94
35577;BME280;21680;52.400;16.920;2023-02-26T02:56:35;100119.88;;;-1.62;89.87
35577;BME280;21680;52.400;16.920;2023-02-26T02:59:13;100126.19;;;-1.64;89.85
35577;BME280;21680;52.400;16.920;2023-02-26T03:01:40;100134.95;;;-1.66;90.07
35577;BME280;21680;52.400;16.920;2023-02-26T03:04:10;100137.76;;;-1.67;89.83
35577;BME280;21680;52.400;16.920;2023-02-26T03:06:37;100138.11;;;-1.69;89.75
35577;BME280;21680;52.400;16.920;2023-02-26T03:09:04;100142.48;;;-1.71;89.89
35577;BME280;21680;52.400;16.920;2023-02-26T03:11:31;100142.84;;;-1.72;89.97
35577;BME280;21680;52.400;16.920;2023-02-26T03:13:57;100150.20;;;-1.72;90.08
35577;BME280;21680;52.400;16.920;2023-02-26T03:16:55;100153.02;;;-1.72;89.94
35577;BME280;21680;52.400;16.920;2023-02-26T03:19:40;100161.23;;;-1.72;89.95
35577;BME280;21680;52.400;16.920;2023-02-26T03:22:29;100161.24;;;-1.74;89.99
35577;BME280;21680;52.400;16.920;2023-02-26T03:25:11;100164.22;;;-1.75;90.00
35577;BME280;21680;52.400;16.920;2023-02-26T03:27:46;100163.70;;;-1.74;89.81
35577;BME280;21680;52.400;16.920;2023-02-26T03:30:21;100170.70;;;-1.75;90.17
35577;BME280;21680;52.400;16.920;2023-02-26T03:36:05;100184.89;;;-1.78;89.83
35577;BME280;21680;52.400;16.920;2023-02-26T03:38:48;100188.56;;;-1.79;90.18
35577;BME280;21680;52.400;16.920;2023-02-26T03:41:20;100191.89;;;-1.80;90.06
35577;BME280;21680;52.400;16.920;2023-02-26T03:43:55;100196.27;;;-1.81;90.16
35577;BME280;21680;52.400;16.920;2023-02-26T03:46:30;100199.77;;;-1.81;90.07
35577;BME280;21680;52.400;16.920;2023-02-26T03:49:02;100203.10;;;-1.81;90.08
35577;BME280;21680;52.400;16.920;2023-02-26T03:51:29;100217.64;;;-1.81;89.94
35577;BME280;21680;52.400;16.920;2023-02-26T03:54:17;100215.19;;;-1.81;90.21
35577;BME280;21680;52.400;16.920;2023-02-26T03:56:46;100219.21;;;-1.82;89.97
35577;BME280;21680;52.400;16.920;2023-02-26T03:59:13;100219.91;;;-1.82;90.16
35577;BME280;21680;52.400;16.920;2023-02-26T04:01:53;100220.61;;;-1.82;90.30
35577;BME280;21680;52.400;16.920;2023-02-26T04:04:33;100228.50;;;-1.82;90.16
35577;BME280;21680;52.400;16.920;2023-02-26T04:07:00;100232.88;;;-1.82;90.19
35577;BME280;21680;52.400;16.920;2023-02-26T04:09:26;100230.95;;;-1.81;90.28
35577;BME280;21680;52.400;16.920;2023-02-26T04:11:52;100236.55;;;-1.81;90.40
35577;BME280;21680;52.400;16.920;2023-02-26T04:14:18;100234.11;;;-1.82;90.25
35577;BME280;21680;52.400;16.920;2023-02-26T04:16:44;100237.78;;;-1.83;90.41
35577;BME280;21680;52.400;16.920;2023-02-26T04:19:10;100236.90;;;-1.82;90.47
35577;BME280;21680;52.400;16.920;2023-02-26T04:21:35;100247.23;;;-1.82;90.32
35577;BME280;21680;52.400;16.920;2023-02-26T04:24:01;100254.23;;;-1.81;90.23
35577;BME280;21680;52.400;16.920;2023-02-26T04:26:26;100257.04;;;-1.81;90.46
35577;BME280;21680;52.400;16.920;2023-02-26T04:28:51;100255.30;;;-1.81;90.48
35577;BME280;21680;52.400;16.920;2023-02-26T04:31:17;100260.90;;;-1.82;90.34
35577;BME280;21680;52.400;16.920;2023-02-26T04:33:42;100262.83;;;-1.82;90.34
35577;BME280;21680;52.400;16.920;2023-02-26T04:36:08;100261.25;;;-1.83;90.38
35577;BME280;21680;52.400;16.920;2023-02-26T04:38:34;100268.77;;;-1.84;90.46
35577;BME280;21680;52.400;16.920;2023-02-26T04:40:59;100272.27;;;-1.84;90.17
35577;BME280;21680;52.400;16.920;2023-02-26T04:43:25;100270.70;;;-1.83;90.47
35577;BME280;21680;52.400;16.920;2023-02-26T04:45:50;100283.84;;;-1.82;90.49
35577;BME280;21680;52.400;16.920;2023-02-26T04:48:15;100279.46;;;-1.81;90.49
35577;BME280;21680;52.400;16.920;2023-02-26T04:50:41;100281.21;;;-1.79;90.49
35577;BME280;21680;52.400;16.920;2023-02-26T04:53:07;100286.64;;;-1.78;90.51
35577;BME280;21680;52.400;16.920;2023-02-26T04:55:33;100290.31;;;-1.75;90.72
35577;BME280;21680;52.400;16.920;2023-02-26T04:57:59;100289.98;;;-1.73;90.91
35577;BME280;21680;52.400;16.920;2023-02-26T05:00:24;100291.02;;;-1.70;90.83
35577;BME280;21680;52.400;16.920;2023-02-26T05:02:50;100293.13;;;-1.68;90.83
35577;BME280;21680;52.400;16.920;2023-02-26T05:05:15;100297.15;;;-1.65;90.91
35577;BME280;21680;52.400;16.920;2023-02-26T05:07:40;100300.83;;;-1.62;90.79
35577;BME280;21680;52.400;16.920;2023-02-26T05:10:06;100302.42;;;-1.60;90.62
35577;BME280;21680;52.400;16.920;2023-02-26T05:12:32;100309.60;;;-1.57;90.61
35577;BME280;21680;52.400;16.920;2023-02-26T05:14:57;100313.11;;;-1.55;90.91
35577;BME280;21680;52.400;16.920;2023-02-26T05:17:23;100315.55;;;-1.53;90.97
35577;BME280;21680;52.400;16.920;2023-02-26T05:19:48;100315.91;;;-1.51;90.82
35577;BME280;21680;52.400;16.920;2023-02-26T05:22:13;100322.05;;;-1.50;90.99
35577;BME280;21680;52.400;16.920;2023-02-26T05:24:39;100318.02;;;-1.47;91.11
35577;BME280;21680;52.400;16.920;2023-02-26T05:27:04;100326.42;;;-1.45;90.79
35577;BME280;21680;52.400;16.920;2023-02-26T05:29:29;100330.63;;;-1.44;91.00
35577;BME280;21680;52.400;16.920;2023-02-26T05:31:55;100332.73;;;-1.42;90.99
35577;BME280;21680;52.400;16.920;2023-02-26T05:34:20;100337.29;;;-1.41;90.92
35577;BME280;21680;52.400;16.920;2023-02-26T05:36:45;100340.27;;;-1.40;90.92
35577;BME280;21680;52.400;16.920;2023-02-26T05:39:11;100341.67;;;-1.39;91.06
35577;BME280;21680;52.400;16.920;2023-02-26T05:41:36;100344.30;;;-1.37;90.78
35577;BME280;21680;52.400;16.920;2023-02-26T05:44:02;100348.16;;;-1.36;90.96
35577;BME280;21680;52.400;16.920;2023-02-26T05:46:27;100355.52;;;-1.34;91.08
35577;BME280;21680;52.400;16.920;2023-02-26T05:48:52;100364.10;;;-1.30;91.05
35577;BME280;21680;52.400;16.920;2023-02-26T05:51:18;100369.02;;;-1.28;91.15
35577;BME280;21680;52.400;16.920;2023-02-26T05:53:44;100370.77;;;-1.26;90.87
35577;BME280;21680;52.400;16.920;2023-02-26T05:56:09;100376.73;;;-1.24;90.95
35577;BME280;21680;52.400;16.920;2023-02-26T05:58:35;100380.41;;;-1.22;90.91
35577;BME280;21680;52.400;16.920;2023-02-26T06:01:00;100385.14;;;-1.21;90.85
35577;BME280;21680;52.400;16.920;2023-02-26T06:03:25;100391.10;;;-1.20;91.06
35577;BME280;21680;52.400;16.920;2023-02-26T06:05:51;100391.80;;;-1.18;91.03
35577;BME280;21680;52.400;16.920;2023-02-26T06:08:16;100400.74;;;-1.16;90.76
35577;BME280;21680;52.400;16.920;2023-02-26T06:10:42;100402.67;;;-1.14;90.91
35577;BME280;21680;52.400;16.920;2023-02-26T06:13:07;100407.76;;;-1.15;90.96
35577;BME280;21680;52.400;16.920;2023-02-26T06:15:33;100410.04;;;-1.12;90.82
35577;BME280;21680;52.400;16.920;2023-02-26T06:17:58;100415.83;;;-1.10;90.83
35577;BME280;21680;52.400;16.920;2023-02-26T06:20:23;100420.38;;;-1.08;90.95
35577;BME280;21680;52.400;16.920;2023-02-26T06:22:49;100420.21;;;-1.03;91.09
35577;BME280;21680;52.400;16.920;2023-02-26T06:25:15;100423.19;;;-0.98;91.11
35577;BME280;21680;52.400;16.920;2023-02-26T06:27:40;100420.73;;;-0.93;91.10
35577;BME280;21680;52.400;16.920;2023-02-26T06:30:06;100426.17;;;-0.89;91.14
35577;BME280;21680;52.400;16.920;2023-02-26T06:32:32;100434.41;;;-0.84;90.98
35577;BME280;21680;52.400;16.920;2023-02-26T06:34:57;100439.85;;;-0.80;91.07
35577;BME280;21680;52.400;16.920;2023-02-26T06:37:23;100441.95;;;-0.78;90.97
35577;BME280;21680;52.400;16.920;2023-02-26T06:39:48;100448.09;;;-0.79;90.96
35577;BME280;21680;52.400;16.920;2023-02-26T06:42:13;100444.75;;;-0.78;91.01
35577;BME280;21680;52.400;16.920;2023-02-26T06:44:38;100448.97;;;-0.76;91.06
35577;BME280;21680;52.400;16.920;2023-02-26T06:47:04;100451.06;;;-0.74;91.10
35577;BME280;21680;52.400;16.920;2023-02-26T06:49:29;100453.17;;;-0.72;90.95
35577;BME280;21680;52.400;16.920;2023-02-26T06:51:54;100458.44;;;-0.68;91.10
35577;BME280;21680;52.400;16.920;2023-02-26T06:54:21;100467.38;;;-0.65;91.18
35577;BME280;21680;52.400;16.920;2023-02-26T06:56:46;100467.73;;;-0.62;91.12
35577;BME280;21680;52.400;16.920;2023-02-26T06:59:11;100477.02;;;-0.58;91.10
35577;BME280;21680;52.400;16.920;2023-02-26T07:01:38;100477.72;;;-0.55;91.02
35577;BME280;21680;52.400;16.920;2023-02-26T07:04:03;100476.14;;;-0.52;91.13
35577;BME280;21680;52.400;16.920;2023-02-26T07:06:29;100481.05;;;-0.48;91.07
35577;BME280;21680;52.400;16.920;2023-02-26T07:08:54;100485.27;;;-0.47;91.06
35577;BME280;21680;52.400;16.920;2023-02-26T07:11:20;100488.24;;;-0.48;90.99
35577;BME280;21680;52.400;16.920;2023-02-26T07:13:45;100489.30;;;-0.49;90.91
35577;BME280;21680;52.400;16.920;2023-02-26T07:16:10;100495.97;;;-0.50;90.97
35577;BME280;21680;52.400;16.920;2023-02-26T07:18:36;100502.47;;;-0.50;90.90
35577;BME280;21680;52.400;16.920;2023-02-26T07:21:03;100505.27;;;-0.50;90.92
35577;BME280;21680;52.400;16.920;2023-02-26T07:23:29;100509.84;;;-0.50;90.84
35577;BME280;21680;52.400;16.920;2023-02-26T07:25:55;100515.80;;;-0.52;90.79
35577;BME280;21680;52.400;16.920;2023-02-26T07:28:22;100516.86;;;-0.52;91.07
35577;BME280;21680;52.400;16.920;2023-02-26T07:30:47;100519.48;;;-0.46;91.09
35577;BME280;21680;52.400;16.920;2023-02-26T07:33:12;100522.48;;;-0.38;91.16
35577;BME280;21680;52.400;16.920;2023-02-26T07:35:38;100521.94;;;-0.33;91.19
35577;BME280;21680;52.400;16.920;2023-02-26T07:38:04;100528.08;;;-0.27;91.17
35577;BME280;21680;52.400;16.920;2023-02-26T07:40:32;100534.04;;;-0.23;91.41
35577;BME280;21680;52.400;16.920;2023-02-26T07:42:58;100536.13;;;-0.16;91.37
35577;BME280;21680;52.400;16.920;2023-02-26T07:45:26;100537.00;;;-0.11;91.37
35577;BME280;21680;52.400;16.920;2023-02-26T07:47:52;100544.20;;;-0.05;91.41
35577;BME280;21680;52.400;16.920;2023-02-26T07:50:19;100535.23;;;-0.03;91.36
35577;BME280;21680;52.400;16.920;2023-02-26T07:52:45;100546.26;;;0.02;91.42
35577;BME280;21680;52.400;16.920;2023-02-26T07:55:11;100555.73;;;0.08;91.50
35577;BME280;21680;52.400;16.920;2023-02-26T07:57:36;100559.58;;;0.13;91.45
35577;BME280;21680;52.400;16.920;2023-02-26T08:00:03;100559.04;;;0.18;91.40
35577;BME280;21680;52.400;16.920;2023-02-26T08:02:29;100566.05;;;0.26;91.50
35577;BME280;21680;52.400;16.920;2023-02-26T08:04:54;100569.89;;;0.33;91.52
35577;BME280;21680;52.400;16.920;2023-02-26T08:07:20;100571.81;;;0.37;91.35
35577;BME280;21680;52.400;16.920;2023-02-26T08:09:46;100573.19;;;0.45;91.38
35577;BME280;21680;52.400;16.920;2023-02-26T08:12:11;100581.77;;;0.52;91.51
35577;BME280;21680;52.400;16.920;2023-02-26T08:14:37;100586.70;;;0.52;91.24
35577;BME280;21680;52.400;16.920;2023-02-26T08:17:04;100591.80;;;0.50;90.89
35577;BME280;21680;52.400;16.920;2023-02-26T08:19:29;100599.71;;;0.52;91.06
35577;BME280;21680;52.400;16.920;2023-02-26T08:21:54;100603.40;;;0.55;90.87
35577;BME280;21680;52.400;16.920;2023-02-26T08:24:21;100608.15;;;0.53;90.40
35577;BME280;21680;52.400;16.920;2023-02-26T08:26:46;100611.67;;;0.52;90.21
35577;BME280;21680;52.400;16.920;2023-02-26T08:29:11;100611.66;;;0.52;89.99
35577;BME280;21680;52.400;16.920;2023-02-26T08:31:37;100617.98;;;0.55;89.92
35577;BME280;21680;52.400;16.920;2023-02-26T08:34:02;100627.48;;;0.55;89.89
35577;BME280;21680;52.400;16.920;2023-02-26T08:36:28;100630.83;;;0.55;89.64
35577;BME280;21680;52.400;16.920;2023-02-26T08:38:54;100632.23;;;0.54;89.43
35577;BME280;21680;52.400;16.920;2023-02-26T08:41:19;100644.52;;;0.55;89.33
35577;BME280;21680;52.400;16.920;2023-02-26T08:43:44;100643.48;;;0.56;89.07
35577;BME280;21680;52.400;16.920;2023-02-26T08:46:09;100644.00;;;0.58;89.14
35577;BME280;21680;52.400;16.920;2023-02-26T08:48:35;100645.93;;;0.59;88.65
35577;BME280;21680;52.400;16.920;2023-02-26T08:51:00;100652.61;;;0.59;88.58
35577;BME280;21680;52.400;16.920;2023-02-26T08:53:26;100656.64;;;0.60;88.50
35577;BME280;21680;52.400;16.920;2023-02-26T08:55:52;100660.70;;;0.63;88.38
35577;BME280;21680;52.400;16.920;2023-02-26T08:58:18;100664.02;;;0.65;88.23
35577;BME280;21680;52.400;16.920;2023-02-26T09:00:44;100669.99;;;0.69;88.53
35577;BME280;21680;52.400;16.920;2023-02-26T09:03:09;100674.20;;;0.77;88.42
35577;BME280;21680;52.400;16.920;2023-02-26T09:05:35;100678.75;;;0.82;88.26
35577;BME280;21680;52.400;16.920;2023-02-26T09:08:01;100687.20;;;0.79;87.60
35577;BME280;21680;52.400;16.920;2023-02-26T09:10:26;100685.80;;;0.76;87.28
35577;BME280;21680;52.400;16.920;2023-02-26T09:12:51;100694.58;;;0.81;87.30
35577;BME280;21680;52.400;16.920;2023-02-26T09:15:17;100698.79;;;0.87;87.03
35577;BME280;21680;52.400;16.920;2023-02-26T09:17:43;100702.47;;;0.90;86.98
35577;BME280;21680;52.400;16.920;2023-02-26T09:20:09;100705.27;;;0.92;86.87
35577;BME280;21680;52.400;16.920;2023-02-26T09:22:34;100711.07;;;0.97;86.80
35577;BME280;21680;52.400;16.920;2023-02-26T09:25:01;100715.48;;;0.95;86.65
35577;BME280;21680;52.400;16.920;2023-02-26T09:27:27;100723.73;;;0.97;86.86
35577;BME280;21680;52.400;16.920;2023-02-26T09:29:52;100725.32;;;0.98;86.42
35577;BME280;21680;52.400;16.920;2023-02-26T09:32:17;100729.56;;;0.91;85.65
35577;BME280;21680;52.400;16.920;2023-02-26T09:34:43;100741.71;;;0.86;85.28
35577;BME280;21680;52.400;16.920;2023-02-26T09:37:08;100738.72;;;0.88;84.97
35577;BME280;21680;52.400;16.920;2023-02-26T09:39:35;100743.44;;;0.96;85.11
35577;BME280;21680;52.400;16.920;2023-02-26T09:45:05;100753.02;;;1.28;85.66
35577;BME280;21680;52.400;16.920;2023-02-26T09:47:40;100760.36;;;1.39;85.38
35577;BME280;21680;52.400;16.920;2023-02-26T09:50:21;100761.41;;;1.43;84.94
35577;BME280;21680;52.400;16.920;2023-02-26T09:55:38;100763.10;;;1.56;85.05
35577;BME280;21680;52.400;16.920;2023-02-26T09:58:26;100767.77;;;1.75;85.08
35577;BME280;21680;52.400;16.920;2023-02-26T10:09:08;100786.40;;;1.82;83.01
35577;BME280;21680;52.400;16.920;2023-02-26T10:17:22;100793.22;;;1.90;82.77
35577;BME280;21680;52.400;16.920;2023-02-26T10:19:55;100793.34;;;2.01;82.63
35577;BME280;21680;52.400;16.920;2023-02-26T10:25:12;100794.42;;;2.23;82.60
35577;BME280;21680;52.400;16.920;2023-02-26T10:27:46;100798.55;;;2.38;82.45
35577;BME280;21680;52.400;16.920;2023-02-26T10:33:26;100803.02;;;2.53;81.62
35577;BME280;21680;52.400;16.920;2023-02-26T10:36:04;100801.95;;;2.71;81.80
35577;BME280;21680;52.400;16.920;2023-02-26T10:38:34;100812.10;;;2.80;81.00
35577;BME280;21680;52.400;16.920;2023-02-26T10:41:12;100814.52;;;2.86;80.88
35577;BME280;21680;52.400;16.920;2023-02-26T10:43:42;100816.27;;;2.87;80.52
35577;BME280;21680;52.400;16.920;2023-02-26T10:46:26;100822.65;;;2.85;79.72
35577;BME280;21680;52.400;16.920;2023-02-26T10:49:19;100825.39;;;2.74;78.15
35577;BME280;21680;52.400;16.920;2023-02-26T10:51:50;100833.52;;;2.56;77.82
35577;BME280;21680;52.400;16.920;2023-02-26T10:54:30;100837.20;;;2.56;77.98
35577;BME280;21680;52.400;16.920;2023-02-26T10:56:57;100837.05;;;2.55;77.79
35577;BME280;21680;52.400;16.920;2023-02-26T10:59:23;100839.17;;;2.53;77.43
35577;BME280;21680;52.400;16.920;2023-02-26T11:01:50;100846.36;;;2.58;77.81
35577;BME280;21680;52.400;16.920;2023-02-26T11:04:23;100845.70;;;2.73;78.15
35577;BME280;21680;52.400;16.920;2023-02-26T11:06:54;100846.12;;;2.84;77.75
35577;BME280;21680;52.400;16.920;2023-02-26T11:09:31;100846.80;;;2.88;77.60
35577;BME280;21680;52.400;16.920;2023-02-26T11:12:11;100840.15;;;3.01;77.63
35577;BME280;21680;52.400;16.920;2023-02-26T11:14:37;100843.64;;;3.23;77.77
35577;BME280;21680;52.400;16.920;2023-02-26T11:17:13;100842.57;;;3.24;75.05
35577;BME280;21680;52.400;16.920;2023-02-26T11:19:47;100850.64;;;3.12;75.52
35577;BME280;21680;52.400;16.920;2023-02-26T11:22:15;100854.61;;;3.03;73.84
35577;BME280;21680;52.400;16.920;2023-02-26T11:24:45;100859.98;;;2.94;74.63
35577;BME280;21680;52.400;16.920;2023-02-26T11:27:41;100863.18;;;2.92;73.37
35577;BME280;21680;52.400;16.920;2023-02-26T11:30:20;100859.73;;;2.84;72.85
35577;BME280;21680;52.400;16.920;2023-02-26T11:32:50;100860.70;;;2.92;73.50
35577;BME280;21680;52.400;16.920;2023-02-26T11:35:18;100861.98;;;3.09;73.88
35577;BME280;21680;52.400;16.920;2023-02-26T11:37:48;100859.79;;;3.16;73.58
35577;BME280;21680;52.400;16.920;2023-02-26T11:40:22;100863.09;;;3.20;73.82
35577;BME280;21680;52.400;16.920;2023-02-26T11:42:54;100867.64;;;3.25;73.51
35577;BME280;21680;52.400;16.920;2023-02-26T11:45:21;100868.94;;;3.18;72.95
35577;BME280;21680;52.400;16.920;2023-02-26T11:47:48;100876.59;;;3.13;71.95
35577;BME280;21680;52.400;16.920;2023-02-26T11:50:18;100877.52;;;3.08;72.61
35577;BME280;21680;52.400;16.920;2023-02-26T11:52:53;100883.18;;;3.05;72.46
35577;BME280;21680;52.400;16.920;2023-02-26T11:55:27;100885.52;;;3.00;72.02
35577;BME280;21680;52.400;16.920;2023-02-26T11:57:54;100887.19;;;2.91;71.93
35577;BME280;21680;52.400;16.920;2023-02-26T12:00:29;100892.33;;;2.88;71.54
35577;BME280;21680;52.400;16.920;2023-02-26T12:03:00;100893.60;;;2.84;71.03
35577;BME280;21680;52.400;16.920;2023-02-26T12:05:29;100899.44;;;2.81;71.19
35577;BME280;21680;52.400;16.920;2023-02-26T12:07:55;100900.98;;;2.86;71.72
35577;BME280;21680;52.400;16.920;2023-02-26T12:10:41;100905.54;;;2.91;71.73
35577;BME280;21680;52.400;16.920;2023-02-26T12:13:11;100908.04;;;2.88;71.72
35577;BME280;21680;52.400;16.920;2023-02-26T12:21:35;100913.15;;;2.65;70.71
35577;BME280;21680;52.400;16.920;2023-02-26T12:24:23;100918.79;;;2.66;70.96
35577;BME280;21680;52.400;16.920;2023-02-26T12:26:58;100921.95;;;2.69;71.23
35577;BME280;21680;52.400;16.920;2023-02-26T12:32:27;100922.48;;;2.69;70.28
35577;BME280;21680;52.400;16.920;2023-02-26T12:35:46;100922.45;;;2.73;70.44
35577;BME280;21680;52.400;16.920;2023-02-26T12:38:59;100925.37;;;2.83;69.89
35577;BME280;21680;52.400;16.920;2023-02-26T12:42:27;100931.53;;;2.85;70.17
35577;BME280;21680;52.400;16.920;2023-02-26T12:44:49;100934.46;;;2.94;70.39
35577;BME280;21680;52.400;16.920;2023-02-26T12:47:32;100939.52;;;3.01;70.12
35577;BME280;21680;52.400;16.920;2023-02-26T12:56:14;100946.09;;;3.19;69.89
35577;BME280;21680;52.400;16.920;2023-02-26T13:09:57;100955.90;;;3.28;69.89
35577;BME280;21680;52.400;16.920;2023-02-26T13:12:33;100953.13;;;3.22;69.18
35577;BME280;21680;52.400;16.920;2023-02-26T13:20:39;100960.66;;;3.09;69.18
35577;BME280;21680;52.400;16.920;2023-02-26T13:23:18;100965.29;;;3.04;68.74
35577;BME280;21680;52.400;16.920;2023-02-26T13:25:50;100964.80;;;2.98;68.24
35577;BME280;21680;52.400;16.920;2023-02-26T13:31:09;100969.73;;;2.99;68.34
35577;BME280;21680;52.400;16.920;2023-02-26T13:33:36;100969.23;;;2.94;68.08
35577;BME280;21680;52.400;16.920;2023-02-26T13:36:04;100972.61;;;2.91;67.81
35577;BME280;21680;52.400;16.920;2023-02-26T13:44:38;100979.13;;;2.93;67.81
35577;BME280;21680;52.400;16.920;2023-02-26T13:50:01;100974.24;;;4.45;68.39
35577;BME280;21680;52.400;16.920;2023-02-26T13:52:32;100967.42;;;5.02;65.57
35577;BME280;21680;52.400;16.920;2023-02-26T13:54:58;100964.89;;;5.56;67.18
35577;BME280;21680;52.400;16.920;2023-02-26T13:57:42;100963.70;;;5.83;66.30
35577;BME280;21680;52.400;16.920;2023-02-26T14:00:33;100969.09;;;5.39;65.08
35577;BME280;21680;52.400;16.920;2023-02-26T14:03:29;100984.14;;;4.97;64.61
35577;BME280;21680;52.400;16.920;2023-02-26T14:06:22;100992.70;;;4.42;63.32
35577;BME280;21680;52.400;16.920;2023-02-26T14:08:51;100998.98;;;4.05;63.31
35577;BME280;21680;52.400;16.920;2023-02-26T14:11:25;101000.14;;;3.78;62.59
35577;BME280;21680;52.400;16.920;2023-02-26T14:14:22;101005.61;;;3.61;63.02
35577;BME280;21680;52.400;16.920;2023-02-26T14:22:45;101013.70;;;3.44;63.11
35577;BME280;21680;52.400;16.920;2023-02-26T14:25:24;101016.39;;;3.40;62.13
35577;BME280;21680;52.400;16.920;2023-02-26T14:28:19;101021.72;;;3.35;62.27
35577;BME280;21680;52.400;16.920;2023-02-26T14:30:51;101025.98;;;3.33;61.83
35577;BME280;21680;52.400;16.920;2023-02-26T14:33:18;101029.88;;;3.32;62.30
35577;BME280;21680;52.400;16.920;2023-02-26T14:35:46;101033.35;;;3.39;62.61
35577;BME280;21680;52.400;16.920;2023-02-26T14:38:29;101036.37;;;3.39;62.22
35577;BME280;21680;52.400;16.920;2023-02-26T14:43:40;101038.38;;;3.29;62.38
35577;BME280;21680;52.400;16.920;2023-02-26T14:46:08;101045.26;;;3.30;62.28